sensor_id;sensor_type;location;lat;lon;timestamp;P1;durP1;ratioP1;P2;durP2;ratioP2
67227;SDS011;54139;42.616;23.748;2023-07-08T00:00:19;14.35;;;11.70;;
67227;SDS011;54139;42.616;23.748;2023-07-08T00:02:45;13.82;;;12.40;;
67227;SDS011;54139;42.616;23.748;2023-07-08T00:05:14;16.20;;;12.07;;
67227;SDS011;54139;42.616;23.748;2023-07-08T00:07:41;17.05;;;14.13;;
67227;SDS011;54139;42.616;23.748;2023-07-08T00:10:24;15.80;;;14.30;;
67227;SDS011;54139;42.616;23.748;2023-07-08T00:12:52;15.45;;;14.13;;
67227;SDS011;54139;42.616;23.748;2023-07-08T00:15:21;16.73;;;15.17;;
67227;SDS011;54139;42.616;23.748;2023-07-08T00:17:47;16.95;;;15.55;;
67227;SDS011;54139;42.616;23.748;2023-07-08T00:20:14;17.30;;;15.73;;
67227;SDS011;54139;42.616;23.748;2023-07-08T00:22:43;18.63;;;16.83;;
67227;SDS011;54139;42.616;23.748;2023-07-08T00:25:12;19.08;;;17.30;;
67227;SDS011;54139;42.616;23.748;2023-07-08T00:27:38;19.30;;;17.23;;
67227;SDS011;54139;42.616;23.748;2023-07-08T00:30:26;20.45;;;18.65;;
67227;SDS011;54139;42.616;23.748;2023-07-08T00:32:54;20.52;;;18.63;;
67227;SDS011;54139;42.616;23.748;2023-07-08T00:35:30;22.80;;;20.70;;
67227;SDS011;54139;42.616;23.748;2023-07-08T00:38:04;23.38;;;21.15;;
67227;SDS011;54139;42.616;23.748;2023-07-08T00:40:37;24.23;;;20.70;;
67227;SDS011;54139;42.616;23.748;2023-07-08T00:43:03;23.73;;;21.13;;
67227;SDS011;54139;42.616;23.748;2023-07-08T00:45:49;24.27;;;22.02;;
67227;SDS011;54139;42.616;23.748;2023-07-08T00:48:24;23.52;;;21.35;;
67227;SDS011;54139;42.616;23.748;2023-07-08T00:50:54;25.23;;;22.52;;
67227;SDS011;54139;42.616;23.748;2023-07-08T00:55:50;26.00;;;23.10;;
67227;SDS011;54139;42.616;23.748;2023-07-08T00:58:17;24.92;;;22.75;;
67227;SDS011;54139;42.616;23.748;2023-07-08T01:00:44;25.30;;;22.92;;
67227;SDS011;54139;42.616;23.748;2023-07-08T01:03:09;25.42;;;22.92;;
67227;SDS011;54139;42.616;23.748;2023-07-08T01:05:35;24.17;;;21.90;;
67227;SDS011;54139;42.616;23.748;2023-07-08T01:08:03;25.13;;;22.80;;
67227;SDS011;54139;42.616;23.748;2023-07-08T01:10:37;25.65;;;22.98;;
67227;SDS011;54139;42.616;23.748;2023-07-08T01:13:14;24.45;;;22.25;;
67227;SDS011;54139;42.616;23.748;2023-07-08T01:15:42;25.50;;;22.13;;
67227;SDS011;54139;42.616;23.748;2023-07-08T01:18:12;25.77;;;23.25;;
67227;SDS011;54139;42.616;23.748;2023-07-08T01:20:41;25.40;;;22.98;;
67227;SDS011;54139;42.616;23.748;2023-07-08T01:23:09;26.08;;;23.58;;
67227;SDS011;54139;42.616;23.748;2023-07-08T01:25:35;24.33;;;22.13;;
67227;SDS011;54139;42.616;23.748;2023-07-08T01:28:00;26.13;;;23.35;;
67227;SDS011;54139;42.616;23.748;2023-07-08T01:30:27;25.63;;;22.92;;
67227;SDS011;54139;42.616;23.748;2023-07-08T01:32:55;26.38;;;22.92;;
67227;SDS011;54139;42.616;23.748;2023-07-08T01:35:23;24.65;;;22.40;;
67227;SDS011;54139;42.616;23.748;2023-07-08T01:37:49;25.13;;;22.60;;
67227;SDS011;54139;42.616;23.748;2023-07-08T01:42:53;24.33;;;21.98;;
67227;SDS011;54139;42.616;23.748;2023-07-08T01:45:19;24.80;;;22.58;;
67227;SDS011;54139;42.616;23.748;2023-07-08T01:47:56;26.38;;;23.90;;
67227;SDS011;54139;42.616;23.748;2023-07-08T01:50:24;23.63;;;21.63;;
67227;SDS011;54139;42.616;23.748;2023-07-08T01:52:50;25.33;;;22.73;;
67227;SDS011;54139;42.616;23.748;2023-07-08T01:55:21;24.83;;;22.35;;
67227;SDS011;54139;42.616;23.748;2023-07-08T01:57:50;24.15;;;21.88;;
67227;SDS011;54139;42.616;23.748;2023-07-08T02:00:16;23.45;;;21.30;;
67227;SDS011;54139;42.616;23.748;2023-07-08T02:02:42;25.55;;;23.10;;
67227;SDS011;54139;42.616;23.748;2023-07-08T02:05:07;26.02;;;23.60;;
67227;SDS011;54139;42.616;23.748;2023-07-08T02:07:33;24.50;;;22.05;;
67227;SDS011;54139;42.616;23.748;2023-07-08T02:09:59;25.58;;;23.27;;
67227;SDS011;54139;42.616;23.748;2023-07-08T02:12:24;23.42;;;21.33;;
67227;SDS011;54139;42.616;23.748;2023-07-08T02:14:49;23.42;;;21.08;;
67227;SDS011;54139;42.616;23.748;2023-07-08T02:17:15;24.10;;;22.08;;
67227;SDS011;54139;42.616;23.748;2023-07-08T02:19:42;22.45;;;20.60;;
67227;SDS011;54139;42.616;23.748;2023-07-08T02:22:08;23.58;;;20.88;;
67227;SDS011;54139;42.616;23.748;2023-07-08T02:24:34;24.10;;;22.00;;
67227;SDS011;54139;42.616;23.748;2023-07-08T02:27:00;23.20;;;21.20;;
67227;SDS011;54139;42.616;23.748;2023-07-08T02:29:25;24.13;;;21.92;;
67227;SDS011;54139;42.616;23.748;2023-07-08T02:31:51;23.05;;;20.83;;
67227;SDS011;54139;42.616;23.748;2023-07-08T02:34:17;23.08;;;21.08;;
67227;SDS011;54139;42.616;23.748;2023-07-08T02:36:42;23.70;;;21.60;;
67227;SDS011;54139;42.616;23.748;2023-07-08T02:39:09;24.35;;;21.85;;
67227;SDS011;54139;42.616;23.748;2023-07-08T02:41:35;23.63;;;21.52;;
67227;SDS011;54139;42.616;23.748;2023-07-08T02:44:00;24.17;;;22.08;;
67227;SDS011;54139;42.616;23.748;2023-07-08T02:46:26;24.52;;;22.17;;
67227;SDS011;54139;42.616;23.748;2023-07-08T02:48:52;24.23;;;21.83;;
67227;SDS011;54139;42.616;23.748;2023-07-08T02:51:17;23.67;;;21.52;;
67227;SDS011;54139;42.616;23.748;2023-07-08T02:53:43;24.42;;;21.98;;
67227;SDS011;54139;42.616;23.748;2023-07-08T02:56:08;24.27;;;21.98;;
67227;SDS011;54139;42.616;23.748;2023-07-08T02:58:34;25.10;;;22.80;;
67227;SDS011;54139;42.616;23.748;2023-07-08T03:01:00;24.02;;;21.85;;
67227;SDS011;54139;42.616;23.748;2023-07-08T03:03:26;24.27;;;22.20;;
67227;SDS011;54139;42.616;23.748;2023-07-08T03:05:59;24.15;;;22.02;;
67227;SDS011;54139;42.616;23.748;2023-07-08T03:08:26;24.92;;;22.63;;
67227;SDS011;54139;42.616;23.748;2023-07-08T03:10:56;24.65;;;22.38;;
67227;SDS011;54139;42.616;23.748;2023-07-08T03:13:24;24.83;;;22.48;;
67227;SDS011;54139;42.616;23.748;2023-07-08T03:15:50;22.77;;;20.77;;
67227;SDS011;54139;42.616;23.748;2023-07-08T03:18:15;22.40;;;20.50;;
67227;SDS011;54139;42.616;23.748;2023-07-08T03:20:41;23.83;;;21.50;;
67227;SDS011;54139;42.616;23.748;2023-07-08T03:23:10;23.57;;;21.37;;
67227;SDS011;54139;42.616;23.748;2023-07-08T03:25:36;22.50;;;20.50;;
67227;SDS011;54139;42.616;23.748;2023-07-08T03:28:02;23.23;;;21.20;;
67227;SDS011;54139;42.616;23.748;2023-07-08T03:30:31;23.65;;;18.35;;
67227;SDS011;54139;42.616;23.748;2023-07-08T03:32:58;20.02;;;17.98;;
67227;SDS011;54139;42.616;23.748;2023-07-08T03:35:23;20.23;;;18.25;;
67227;SDS011;54139;42.616;23.748;2023-07-08T03:37:50;16.88;;;15.40;;
67227;SDS011;54139;42.616;23.748;2023-07-08T03:40:16;15.57;;;14.15;;
67227;SDS011;54139;42.616;23.748;2023-07-08T03:42:41;16.92;;;15.43;;
67227;SDS011;54139;42.616;23.748;2023-07-08T03:45:07;17.25;;;15.73;;
67227;SDS011;54139;42.616;23.748;2023-07-08T03:47:33;15.90;;;14.70;;
67227;SDS011;54139;42.616;23.748;2023-07-08T03:49:58;16.67;;;15.07;;
67227;SDS011;54139;42.616;23.748;2023-07-08T03:52:24;15.52;;;13.88;;
67227;SDS011;54139;42.616;23.748;2023-07-08T03:54:50;16.52;;;14.77;;
67227;SDS011;54139;42.616;23.748;2023-07-08T03:57:15;15.55;;;14.32;;
67227;SDS011;54139;42.616;23.748;2023-07-08T03:59:40;17.08;;;15.52;;
67227;SDS011;54139;42.616;23.748;2023-07-08T04:02:08;18.02;;;16.33;;
67227;SDS011;54139;42.616;23.748;2023-07-08T04:04:35;16.67;;;15.35;;
67227;SDS011;54139;42.616;23.748;2023-07-08T04:07:02;15.02;;;13.82;;
67227;SDS011;54139;42.616;23.748;2023-07-08T04:09:31;16.23;;;14.93;;
67227;SDS011;54139;42.616;23.748;2023-07-08T04:11:56;14.90;;;13.68;;
67227;SDS011;54139;42.616;23.748;2023-07-08T04:14:23;15.80;;;13.98;;
67227;SDS011;54139;42.616;23.748;2023-07-08T04:16:56;14.00;;;12.68;;
67227;SDS011;54139;42.616;23.748;2023-07-08T04:19:23;14.27;;;12.88;;
67227;SDS011;54139;42.616;23.748;2023-07-08T04:21:49;11.88;;;10.68;;
67227;SDS011;54139;42.616;23.748;2023-07-08T04:24:15;12.40;;;10.88;;
67227;SDS011;54139;42.616;23.748;2023-07-08T04:26:42;12.32;;;11.05;;
67227;SDS011;54139;42.616;23.748;2023-07-08T04:29:14;10.45;;;9.75;;
67227;SDS011;54139;42.616;23.748;2023-07-08T04:31:41;9.95;;;9.15;;
67227;SDS011;54139;42.616;23.748;2023-07-08T04:34:07;10.95;;;9.85;;
67227;SDS011;54139;42.616;23.748;2023-07-08T04:36:33;9.27;;;8.40;;
67227;SDS011;54139;42.616;23.748;2023-07-08T04:38:59;8.95;;;8.25;;
67227;SDS011;54139;42.616;23.748;2023-07-08T04:41:26;9.48;;;8.55;;
67227;SDS011;54139;42.616;23.748;2023-07-08T04:43:52;10.13;;;8.25;;
67227;SDS011;54139;42.616;23.748;2023-07-08T04:46:27;8.98;;;8.05;;
67227;SDS011;54139;42.616;23.748;2023-07-08T04:49:00;9.07;;;8.27;;
67227;SDS011;54139;42.616;23.748;2023-07-08T04:51:26;9.05;;;8.05;;
67227;SDS011;54139;42.616;23.748;2023-07-08T04:53:51;8.60;;;8.00;;
67227;SDS011;54139;42.616;23.748;2023-07-08T04:56:17;7.57;;;6.90;;
67227;SDS011;54139;42.616;23.748;2023-07-08T04:58:42;8.02;;;7.43;;
67227;SDS011;54139;42.616;23.748;2023-07-08T05:01:08;8.48;;;7.72;;
67227;SDS011;54139;42.616;23.748;2023-07-08T05:03:34;8.65;;;7.90;;
67227;SDS011;54139;42.616;23.748;2023-07-08T05:05:59;7.63;;;7.00;;
67227;SDS011;54139;42.616;23.748;2023-07-08T05:08:25;7.63;;;6.97;;
67227;SDS011;54139;42.616;23.748;2023-07-08T05:10:50;8.70;;;8.00;;
67227;SDS011;54139;42.616;23.748;2023-07-08T05:13:16;8.85;;;8.15;;
67227;SDS011;54139;42.616;23.748;2023-07-08T05:15:41;14.32;;;9.80;;
67227;SDS011;54139;42.616;23.748;2023-07-08T05:18:07;9.93;;;8.98;;
67227;SDS011;54139;42.616;23.748;2023-07-08T05:20:32;8.27;;;7.53;;
67227;SDS011;54139;42.616;23.748;2023-07-08T05:22:59;28.30;;;8.93;;
67227;SDS011;54139;42.616;23.748;2023-07-08T05:25:25;7.38;;;6.68;;
67227;SDS011;54139;42.616;23.748;2023-07-08T05:30:17;8.70;;;7.72;;
67227;SDS011;54139;42.616;23.748;2023-07-08T05:32:43;11.63;;;8.80;;
67227;SDS011;54139;42.616;23.748;2023-07-08T05:35:09;9.63;;;8.20;;
67227;SDS011;54139;42.616;23.748;2023-07-08T05:37:35;9.35;;;8.55;;
67227;SDS011;54139;42.616;23.748;2023-07-08T05:40:00;8.48;;;7.45;;
67227;SDS011;54139;42.616;23.748;2023-07-08T05:42:29;7.95;;;7.32;;
67227;SDS011;54139;42.616;23.748;2023-07-08T05:44:55;8.68;;;8.07;;
67227;SDS011;54139;42.616;23.748;2023-07-08T05:47:20;10.10;;;9.20;;
67227;SDS011;54139;42.616;23.748;2023-07-08T05:49:47;9.77;;;9.07;;
67227;SDS011;54139;42.616;23.748;2023-07-08T05:52:12;12.07;;;10.18;;
67227;SDS011;54139;42.616;23.748;2023-07-08T05:54:38;10.05;;;9.25;;
67227;SDS011;54139;42.616;23.748;2023-07-08T05:57:06;10.13;;;9.30;;
67227;SDS011;54139;42.616;23.748;2023-07-08T05:59:32;10.23;;;9.30;;
67227;SDS011;54139;42.616;23.748;2023-07-08T06:01:59;10.02;;;9.18;;
67227;SDS011;54139;42.616;23.748;2023-07-08T06:04:24;9.70;;;8.90;;
67227;SDS011;54139;42.616;23.748;2023-07-08T06:06:51;10.40;;;9.50;;
67227;SDS011;54139;42.616;23.748;2023-07-08T06:09:16;10.48;;;9.57;;
67227;SDS011;54139;42.616;23.748;2023-07-08T06:11:42;9.52;;;8.88;;
67227;SDS011;54139;42.616;23.748;2023-07-08T06:14:08;10.20;;;9.30;;
67227;SDS011;54139;42.616;23.748;2023-07-08T06:16:34;10.55;;;9.77;;
67227;SDS011;54139;42.616;23.748;2023-07-08T06:19:00;10.18;;;9.20;;
67227;SDS011;54139;42.616;23.748;2023-07-08T06:21:25;11.07;;;9.80;;
67227;SDS011;54139;42.616;23.748;2023-07-08T06:23:51;11.55;;;10.45;;
67227;SDS011;54139;42.616;23.748;2023-07-08T06:26:16;11.73;;;9.15;;
67227;SDS011;54139;42.616;23.748;2023-07-08T06:28:42;10.48;;;9.68;;
67227;SDS011;54139;42.616;23.748;2023-07-08T06:31:07;10.80;;;9.85;;
67227;SDS011;54139;42.616;23.748;2023-07-08T06:33:33;12.38;;;10.00;;
67227;SDS011;54139;42.616;23.748;2023-07-08T06:35:59;12.63;;;10.05;;
67227;SDS011;54139;42.616;23.748;2023-07-08T06:38:24;11.65;;;10.45;;
67227;SDS011;54139;42.616;23.748;2023-07-08T06:40:49;10.13;;;9.10;;
67227;SDS011;54139;42.616;23.748;2023-07-08T06:43:15;9.65;;;8.95;;
67227;SDS011;54139;42.616;23.748;2023-07-08T06:45:40;10.23;;;9.38;;
67227;SDS011;54139;42.616;23.748;2023-07-08T06:48:06;9.82;;;8.82;;
67227;SDS011;54139;42.616;23.748;2023-07-08T06:50:32;11.90;;;8.60;;
67227;SDS011;54139;42.616;23.748;2023-07-08T06:52:57;10.73;;;9.43;;
67227;SDS011;54139;42.616;23.748;2023-07-08T06:55:23;10.27;;;9.45;;
67227;SDS011;54139;42.616;23.748;2023-07-08T06:57:49;9.95;;;9.15;;
67227;SDS011;54139;42.616;23.748;2023-07-08T07:00:15;11.00;;;9.15;;
67227;SDS011;54139;42.616;23.748;2023-07-08T07:02:40;15.15;;;9.98;;
67227;SDS011;54139;42.616;23.748;2023-07-08T07:05:06;10.32;;;9.45;;
67227;SDS011;54139;42.616;23.748;2023-07-08T07:07:32;10.98;;;10.07;;
67227;SDS011;54139;42.616;23.748;2023-07-08T07:09:59;10.98;;;10.05;;
67227;SDS011;54139;42.616;23.748;2023-07-08T07:12:24;10.32;;;9.43;;
67227;SDS011;54139;42.616;23.748;2023-07-08T07:14:50;9.77;;;8.88;;
67227;SDS011;54139;42.616;23.748;2023-07-08T07:17:18;10.35;;;9.32;;
67227;SDS011;54139;42.616;23.748;2023-07-08T07:19:44;9.52;;;8.07;;
67227;SDS011;54139;42.616;23.748;2023-07-08T07:22:10;13.40;;;8.93;;
67227;SDS011;54139;42.616;23.748;2023-07-08T07:24:35;10.02;;;7.82;;
67227;SDS011;54139;42.616;23.748;2023-07-08T07:27:01;10.35;;;8.07;;
67227;SDS011;54139;42.616;23.748;2023-07-08T07:29:26;8.07;;;7.50;;
67227;SDS011;54139;42.616;23.748;2023-07-08T07:31:52;8.02;;;7.32;;
67227;SDS011;54139;42.616;23.748;2023-07-08T07:34:17;8.88;;;7.95;;
67227;SDS011;54139;42.616;23.748;2023-07-08T07:36:43;8.05;;;7.35;;
67227;SDS011;54139;42.616;23.748;2023-07-08T07:39:09;7.85;;;7.32;;
67227;SDS011;54139;42.616;23.748;2023-07-08T07:41:34;8.20;;;7.60;;
67227;SDS011;54139;42.616;23.748;2023-07-08T07:44:00;8.35;;;7.65;;
67227;SDS011;54139;42.616;23.748;2023-07-08T07:46:25;7.75;;;7.15;;
67227;SDS011;54139;42.616;23.748;2023-07-08T07:48:51;7.15;;;6.40;;
67227;SDS011;54139;42.616;23.748;2023-07-08T07:51:16;7.63;;;7.03;;
67227;SDS011;54139;42.616;23.748;2023-07-08T07:53:42;10.27;;;6.93;;
67227;SDS011;54139;42.616;23.748;2023-07-08T07:56:08;7.63;;;6.85;;
67227;SDS011;54139;42.616;23.748;2023-07-08T07:58:33;7.05;;;6.50;;
67227;SDS011;54139;42.616;23.748;2023-07-08T08:01:00;7.30;;;6.70;;
67227;SDS011;54139;42.616;23.748;2023-07-08T08:03:25;10.30;;;7.25;;
67227;SDS011;54139;42.616;23.748;2023-07-08T08:05:51;11.18;;;6.85;;
67227;SDS011;54139;42.616;23.748;2023-07-08T08:08:16;7.03;;;6.50;;
67227;SDS011;54139;42.616;23.748;2023-07-08T08:10:42;7.47;;;6.53;;
67227;SDS011;54139;42.616;23.748;2023-07-08T08:13:09;8.02;;;6.50;;
67227;SDS011;54139;42.616;23.748;2023-07-08T08:15:35;9.73;;;6.50;;
67227;SDS011;54139;42.616;23.748;2023-07-08T08:18:00;8.57;;;6.50;;
67227;SDS011;54139;42.616;23.748;2023-07-08T08:20:27;7.53;;;6.90;;
67227;SDS011;54139;42.616;23.748;2023-07-08T08:22:53;12.30;;;6.95;;
67227;SDS011;54139;42.616;23.748;2023-07-08T08:25:19;8.82;;;7.45;;
67227;SDS011;54139;42.616;23.748;2023-07-08T08:27:46;7.43;;;6.82;;
67227;SDS011;54139;42.616;23.748;2023-07-08T08:30:11;8.38;;;6.70;;
67227;SDS011;54139;42.616;23.748;2023-07-08T08:32:37;7.13;;;6.47;;
67227;SDS011;54139;42.616;23.748;2023-07-08T08:35:03;9.43;;;6.72;;
67227;SDS011;54139;42.616;23.748;2023-07-08T08:37:29;7.75;;;6.82;;
67227;SDS011;54139;42.616;23.748;2023-07-08T08:39:55;7.53;;;6.82;;
67227;SDS011;54139;42.616;23.748;2023-07-08T08:44:55;7.15;;;6.18;;
67227;SDS011;54139;42.616;23.748;2023-07-08T08:47:37;6.80;;;5.55;;
67227;SDS011;54139;42.616;23.748;2023-07-08T08:50:22;6.68;;;6.00;;
67227;SDS011;54139;42.616;23.748;2023-07-08T08:52:52;13.35;;;6.32;;
67227;SDS011;54139;42.616;23.748;2023-07-08T08:55:20;9.05;;;5.53;;
67227;SDS011;54139;42.616;23.748;2023-07-08T09:00:29;8.00;;;6.15;;
67227;SDS011;54139;42.616;23.748;2023-07-08T09:03:11;6.60;;;6.00;;
67227;SDS011;54139;42.616;23.748;2023-07-08T09:05:42;6.47;;;5.88;;
67227;SDS011;54139;42.616;23.748;2023-07-08T09:10:58;6.28;;;5.72;;
67227;SDS011;54139;42.616;23.748;2023-07-08T09:16:06;9.40;;;6.18;;
67227;SDS011;54139;42.616;23.748;2023-07-08T09:21:21;6.28;;;5.72;;
67227;SDS011;54139;42.616;23.748;2023-07-08T09:23:52;6.07;;;5.55;;
67227;SDS011;54139;42.616;23.748;2023-07-08T09:26:21;6.43;;;5.82;;
67227;SDS011;54139;42.616;23.748;2023-07-08T09:28:48;5.97;;;5.50;;
67227;SDS011;54139;42.616;23.748;2023-07-08T09:31:26;6.72;;;6.07;;
67227;SDS011;54139;42.616;23.748;2023-07-08T09:34:08;6.72;;;6.15;;
67227;SDS011;54139;42.616;23.748;2023-07-08T09:36:33;9.98;;;6.53;;
67227;SDS011;54139;42.616;23.748;2023-07-08T09:39:00;6.82;;;6.20;;
67227;SDS011;54139;42.616;23.748;2023-07-08T09:41:33;7.43;;;6.50;;
67227;SDS011;54139;42.616;23.748;2023-07-08T09:44:03;7.50;;;6.00;;
67227;SDS011;54139;42.616;23.748;2023-07-08T09:46:53;7.70;;;7.00;;
67227;SDS011;54139;42.616;23.748;2023-07-08T09:49:20;6.70;;;6.20;;
67227;SDS011;54139;42.616;23.748;2023-07-08T09:51:57;7.65;;;6.95;;
67227;SDS011;54139;42.616;23.748;2023-07-08T09:54:23;7.72;;;6.50;;
67227;SDS011;54139;42.616;23.748;2023-07-08T09:56:58;6.53;;;5.97;;
67227;SDS011;54139;42.616;23.748;2023-07-08T09:59:32;6.55;;;6.03;;
67227;SDS011;54139;42.616;23.748;2023-07-08T10:02:02;6.38;;;5.82;;
67227;SDS011;54139;42.616;23.748;2023-07-08T10:04:37;6.28;;;5.65;;
67227;SDS011;54139;42.616;23.748;2023-07-08T10:07:02;7.63;;;6.18;;
67227;SDS011;54139;42.616;23.748;2023-07-08T10:09:36;7.18;;;6.40;;
67227;SDS011;54139;42.616;23.748;2023-07-08T10:12:01;6.65;;;6.07;;
67227;SDS011;54139;42.616;23.748;2023-07-08T10:14:37;5.47;;;5.07;;
67227;SDS011;54139;42.616;23.748;2023-07-08T10:17:05;6.35;;;5.18;;
67227;SDS011;54139;42.616;23.748;2023-07-08T10:19:31;6.47;;;5.97;;
67227;SDS011;54139;42.616;23.748;2023-07-08T10:35:28;7.13;;;6.15;;
67227;SDS011;54139;42.616;23.748;2023-07-08T10:41:18;7.30;;;5.70;;
67227;SDS011;54139;42.616;23.748;2023-07-08T10:46:24;6.13;;;5.53;;
67227;SDS011;54139;42.616;23.748;2023-07-08T10:49:00;5.28;;;4.88;;
67227;SDS011;54139;42.616;23.748;2023-07-08T10:51:41;5.50;;;5.15;;
67227;SDS011;54139;42.616;23.748;2023-07-08T10:57:12;5.55;;;5.15;;
67227;SDS011;54139;42.616;23.748;2023-07-08T10:59:47;6.57;;;5.20;;
67227;SDS011;54139;42.616;23.748;2023-07-08T11:12:40;6.53;;;6.00;;
67227;SDS011;54139;42.616;23.748;2023-07-08T11:18:07;5.88;;;5.43;;
67227;SDS011;54139;42.616;23.748;2023-07-08T11:20:37;6.20;;;5.70;;
67227;SDS011;54139;42.616;23.748;2023-07-08T11:23:15;6.50;;;5.57;;
67227;SDS011;54139;42.616;23.748;2023-07-08T11:25:48;6.28;;;5.18;;
67227;SDS011;54139;42.616;23.748;2023-07-08T11:28:16;5.60;;;5.10;;
67227;SDS011;54139;42.616;23.748;2023-07-08T11:30:44;5.53;;;4.90;;
67227;SDS011;54139;42.616;23.748;2023-07-08T11:33:11;5.60;;;5.20;;
67227;SDS011;54139;42.616;23.748;2023-07-08T11:38:16;5.28;;;4.88;;
67227;SDS011;54139;42.616;23.748;2023-07-08T11:40:59;7.75;;;6.10;;
67227;SDS011;54139;42.616;23.748;2023-07-08T11:43:27;4.95;;;4.65;;
67227;SDS011;54139;42.616;23.748;2023-07-08T11:46:03;6.10;;;5.53;;
67227;SDS011;54139;42.616;23.748;2023-07-08T11:48:31;4.80;;;4.40;;
67227;SDS011;54139;42.616;23.748;2023-07-08T11:51:04;4.97;;;4.53;;
67227;SDS011;54139;42.616;23.748;2023-07-08T11:55:57;7.53;;;5.53;;
67227;SDS011;54139;42.616;23.748;2023-07-08T11:58:27;5.70;;;5.30;;
67227;SDS011;54139;42.616;23.748;2023-07-08T12:03:41;5.57;;;5.22;;
67227;SDS011;54139;42.616;23.748;2023-07-08T12:08:58;8.63;;;4.82;;
67227;SDS011;54139;42.616;23.748;2023-07-08T12:11:31;8.95;;;4.85;;
67227;SDS011;54139;42.616;23.748;2023-07-08T12:13:59;6.40;;;5.35;;
67227;SDS011;54139;42.616;23.748;2023-07-08T12:16:27;6.53;;;5.22;;
67227;SDS011;54139;42.616;23.748;2023-07-08T12:18:54;6.70;;;4.75;;
67227;SDS011;54139;42.616;23.748;2023-07-08T12:21:22;5.80;;;5.00;;
67227;SDS011;54139;42.616;23.748;2023-07-08T12:23:48;5.07;;;4.68;;
67227;SDS011;54139;42.616;23.748;2023-07-08T12:26:14;5.10;;;4.70;;
67227;SDS011;54139;42.616;23.748;2023-07-08T12:28:40;7.45;;;4.50;;
67227;SDS011;54139;42.616;23.748;2023-07-08T12:31:18;8.65;;;4.90;;
67227;SDS011;54139;42.616;23.748;2023-07-08T12:33:44;5.53;;;5.03;;
67227;SDS011;54139;42.616;23.748;2023-07-08T12:36:16;5.47;;;4.55;;
67227;SDS011;54139;42.616;23.748;2023-07-08T12:38:45;5.55;;;4.53;;
67227;SDS011;54139;42.616;23.748;2023-07-08T12:41:16;9.50;;;4.78;;
67227;SDS011;54139;42.616;23.748;2023-07-08T12:43:55;4.88;;;4.45;;
67227;SDS011;54139;42.616;23.748;2023-07-08T12:46:21;4.88;;;4.43;;
67227;SDS011;54139;42.616;23.748;2023-07-08T12:48:48;4.82;;;4.25;;
67227;SDS011;54139;42.616;23.748;2023-07-08T12:51:15;5.18;;;4.70;;
67227;SDS011;54139;42.616;23.748;2023-07-08T12:53:42;4.65;;;4.30;;
67227;SDS011;54139;42.616;23.748;2023-07-08T12:56:08;10.73;;;4.45;;
67227;SDS011;54139;42.616;23.748;2023-07-08T12:58:36;4.88;;;4.47;;
67227;SDS011;54139;42.616;23.748;2023-07-08T13:01:04;4.72;;;4.30;;
67227;SDS011;54139;42.616;23.748;2023-07-08T13:03:33;4.80;;;4.15;;
67227;SDS011;54139;42.616;23.748;2023-07-08T13:06:01;4.00;;;3.70;;
67227;SDS011;54139;42.616;23.748;2023-07-08T13:08:30;5.75;;;4.47;;
67227;SDS011;54139;42.616;23.748;2023-07-08T13:11:00;8.00;;;4.15;;
67227;SDS011;54139;42.616;23.748;2023-07-08T13:13:37;6.00;;;4.13;;
67227;SDS011;54139;42.616;23.748;2023-07-08T13:16:04;4.38;;;4.07;;
67227;SDS011;54139;42.616;23.748;2023-07-08T13:18:33;3.92;;;3.65;;
67227;SDS011;54139;42.616;23.748;2023-07-08T13:21:00;4.38;;;3.92;;
67227;SDS011;54139;42.616;23.748;2023-07-08T13:23:27;5.30;;;4.57;;
67227;SDS011;54139;42.616;23.748;2023-07-08T13:25:53;4.10;;;3.80;;
67227;SDS011;54139;42.616;23.748;2023-07-08T13:28:22;7.40;;;3.58;;
67227;SDS011;54139;42.616;23.748;2023-07-08T13:33:22;4.95;;;3.75;;
67227;SDS011;54139;42.616;23.748;2023-07-08T13:35:48;3.88;;;3.58;;
67227;SDS011;54139;42.616;23.748;2023-07-08T13:38:16;5.15;;;3.13;;
67227;SDS011;54139;42.616;23.748;2023-07-08T13:40:44;3.57;;;3.27;;
67227;SDS011;54139;42.616;23.748;2023-07-08T13:43:22;4.28;;;3.20;;
67227;SDS011;54139;42.616;23.748;2023-07-08T13:45:49;4.28;;;3.50;;
67227;SDS011;54139;42.616;23.748;2023-07-08T13:48:21;6.57;;;3.35;;
67227;SDS011;54139;42.616;23.748;2023-07-08T13:50:52;3.58;;;3.38;;
67227;SDS011;54139;42.616;23.748;2023-07-08T13:54:08;4.55;;;3.67;;
67227;SDS011;54139;42.616;23.748;2023-07-08T13:56:20;3.78;;;3.47;;
67227;SDS011;54139;42.616;23.748;2023-07-08T13:58:49;3.38;;;3.10;;
67227;SDS011;54139;42.616;23.748;2023-07-08T14:01:24;5.85;;;3.53;;
67227;SDS011;54139;42.616;23.748;2023-07-08T14:03:51;3.90;;;3.50;;
67227;SDS011;54139;42.616;23.748;2023-07-08T14:06:19;4.53;;;3.63;;
67227;SDS011;54139;42.616;23.748;2023-07-08T14:08:53;3.40;;;3.20;;
67227;SDS011;54139;42.616;23.748;2023-07-08T14:11:20;4.57;;;3.38;;
67227;SDS011;54139;42.616;23.748;2023-07-08T14:13:46;4.63;;;3.35;;
67227;SDS011;54139;42.616;23.748;2023-07-08T14:16:23;7.82;;;3.15;;
67227;SDS011;54139;42.616;23.748;2023-07-08T14:18:50;3.88;;;2.88;;
67227;SDS011;54139;42.616;23.748;2023-07-08T14:21:17;4.38;;;3.42;;
67227;SDS011;54139;42.616;23.748;2023-07-08T14:23:42;3.88;;;3.38;;
67227;SDS011;54139;42.616;23.748;2023-07-08T14:26:09;3.33;;;3.03;;
67227;SDS011;54139;42.616;23.748;2023-07-08T14:28:35;3.67;;;3.17;;
67227;SDS011;54139;42.616;23.748;2023-07-08T14:31:01;3.47;;;2.92;;
67227;SDS011;54139;42.616;23.748;2023-07-08T14:33:26;4.03;;;3.28;;
67227;SDS011;54139;42.616;23.748;2023-07-08T14:35:52;5.05;;;3.30;;
67227;SDS011;54139;42.616;23.748;2023-07-08T14:38:17;3.70;;;3.33;;
67227;SDS011;54139;42.616;23.748;2023-07-08T14:40:42;4.78;;;3.25;;
67227;SDS011;54139;42.616;23.748;2023-07-08T14:43:18;7.97;;;3.60;;
67227;SDS011;54139;42.616;23.748;2023-07-08T14:45:50;4.88;;;3.22;;
67227;SDS011;54139;42.616;23.748;2023-07-08T14:48:17;3.20;;;2.33;;
67227;SDS011;54139;42.616;23.748;2023-07-08T14:50:44;4.10;;;2.30;;
67227;SDS011;54139;42.616;23.748;2023-07-08T14:53:10;3.28;;;1.20;;
67227;SDS011;54139;42.616;23.748;2023-07-08T14:55:40;2.03;;;1.10;;
67227;SDS011;54139;42.616;23.748;2023-07-08T14:58:06;1.55;;;1.42;;
67227;SDS011;54139;42.616;23.748;2023-07-08T15:00:31;1.80;;;1.70;;
67227;SDS011;54139;42.616;23.748;2023-07-08T15:02:57;1.85;;;1.75;;
67227;SDS011;54139;42.616;23.748;2023-07-08T15:05:24;1.65;;;1.55;;
67227;SDS011;54139;42.616;23.748;2023-07-08T15:07:52;2.42;;;2.22;;
67227;SDS011;54139;42.616;23.748;2023-07-08T15:10:20;2.20;;;2.00;;
67227;SDS011;54139;42.616;23.748;2023-07-08T15:12:47;2.40;;;1.90;;
67227;SDS011;54139;42.616;23.748;2023-07-08T15:15:14;1.67;;;1.55;;
67227;SDS011;54139;42.616;23.748;2023-07-08T15:17:41;1.63;;;1.53;;
67227;SDS011;54139;42.616;23.748;2023-07-08T15:20:09;1.70;;;1.60;;
67227;SDS011;54139;42.616;23.748;2023-07-08T15:22:38;1.85;;;1.73;;
67227;SDS011;54139;42.616;23.748;2023-07-08T15:25:04;1.50;;;1.30;;
67227;SDS011;54139;42.616;23.748;2023-07-08T15:27:30;2.10;;;1.85;;
67227;SDS011;54139;42.616;23.748;2023-07-08T15:29:56;4.32;;;1.98;;
67227;SDS011;54139;42.616;23.748;2023-07-08T15:32:21;2.35;;;2.15;;
67227;SDS011;54139;42.616;23.748;2023-07-08T15:34:47;3.40;;;2.33;;
67227;SDS011;54139;42.616;23.748;2023-07-08T15:37:12;2.35;;;2.20;;